Time;durP1;ratioP1;P1;durP2;ratioP2;P2;SDS_P1;SDS_P2;PMS_P1;PMS_P2;Temp;Humidity;BMP_temperature;BMP_pressure;BME280_temperature;BME280_humidity;BME280_pressure;Samples;Min_cycle;Max_cycle;Signal;HPM_P1;HPM_P2
2023/03/25 00:02:06;;;;;;;1.63;1.13;;;9.10;99.90;9.00;99476.00;;;;4929954;28;121881;-67
2023/03/25 00:04:34;;;;;;;1.83;0.90;;;9.00;99.90;8.90;99482.00;;;;4933184;28;93733;-67
2023/03/25 00:07:00;;;;;;;2.73;1.20;;;9.00;99.90;8.90;99473.00;;;;4928607;28;92773;-67
2023/03/25 00:09:25;;;;;;;1.03;0.93;;;9.00;99.90;8.90;99463.00;;;;4931861;28;95012;-67
2023/03/25 00:11:52;;;;;;;1.33;1.23;;;9.00;99.90;8.80;99466.00;;;;4931150;28;111159;-67
2023/03/25 00:14:18;;;;;;;0.63;0.63;;;9.00;99.90;8.70;99470.00;;;;4929928;28;121871;-67
2023/03/25 00:16:47;;;;;;;3.13;1.50;;;8.90;99.90;8.60;99468.00;;;;4931226;28;93764;-67
2023/03/25 00:19:17;;;;;;;1.27;1.07;;;8.80;99.90;8.50;99463.00;;;;4932818;28;92957;-68
2023/03/25 00:21:43;;;;;;;1.13;0.97;;;8.70;99.90;8.50;99450.00;;;;4930270;28;93167;-67
2023/03/25 00:24:16;;;;;;;1.80;1.07;;;8.60;99.90;8.40;99446.00;;;;4928864;28;94456;-67
2023/03/25 00:26:47;;;;;;;0.80;0.60;;;8.60;99.90;8.30;99448.00;;;;4929865;28;92952;-67
2023/03/25 00:29:14;;;;;;;1.67;1.43;;;8.40;99.90;8.20;99444.00;;;;4927602;28;93018;-67
2023/03/25 00:31:40;;;;;;;3.80;1.53;;;8.30;99.90;8.10;99443.00;;;;4927976;28;93165;-66
2023/03/25 00:34:07;;;;;;;1.37;0.97;;;8.30;99.90;8.00;99440.00;;;;4929134;28;115340;-67
2023/03/25 00:36:36;;;;;;;1.10;0.90;;;8.20;99.90;7.90;99439.00;;;;4930147;28;93198;-68
2023/03/25 00:39:03;;;;;;;1.10;1.10;;;8.10;99.90;7.90;99439.00;;;;4929382;28;92952;-68
2023/03/25 00:41:30;;;;;;;0.90;0.90;;;8.00;99.90;7.80;99446.00;;;;4931866;28;94999;-68
2023/03/25 00:43:58;;;;;;;2.87;1.17;;;7.90;99.90;7.70;99446.00;;;;4929169;28;94262;-69
2023/03/25 00:46:26;;;;;;;1.23;1.13;;;7.90;99.90;7.60;99440.00;;;;4928221;28;93022;-68
2023/03/25 00:48:53;;;;;;;1.33;0.80;;;7.90;99.90;7.50;99424.00;;;;4930480;28;93096;-68
2023/03/25 00:51:21;;;;;;;1.50;1.20;;;7.70;99.90;7.40;99424.00;;;;4929207;28;98618;-68
2023/03/25 00:53:53;;;;;;;2.10;1.30;;;7.60;99.90;7.40;99422.00;;;;4930719;28;93034;-68
2023/03/25 00:56:20;;;;;;;3.30;1.83;;;7.60;99.90;7.30;99426.00;;;;4930863;28;93160;-68
2023/03/25 00:58:46;;;;;;;4.80;3.40;;;7.40;99.90;7.20;99422.00;;;;4929255;28;100954;-68
2023/03/25 01:01:22;;;;;;;8.83;6.27;;;7.70;99.90;7.20;99415.00;;;;4931278;28;122642;-68
2023/03/25 01:03:56;;;;;;;4.80;3.80;;;7.60;99.90;7.20;99411.00;;;;4930899;28;93031;-68
2023/03/25 01:06:31;;;;;;;2.10;1.73;;;7.40;99.90;7.20;99425.00;;;;4931034;28;93849;-68
2023/03/25 01:08:58;;;;;;;4.17;1.63;;;7.30;99.90;7.20;99430.00;;;;4926239;28;98984;-68
2023/03/25 01:11:33;;;;;;;2.60;2.40;;;7.30;99.90;7.20;99429.00;;;;4908998;28;93249;-67
2023/03/25 01:14:00;;;;;;;3.23;2.00;;;7.30;99.90;7.20;99422.00;;;;4912675;28;93152;-67
2023/03/25 01:16:27;;;;;;;4.60;2.27;;;7.30;99.90;7.20;99416.00;;;;4928527;28;102002;-67
2023/03/25 01:18:54;;;;;;;2.27;1.93;;;7.30;99.90;7.20;99422.00;;;;4928635;28;92974;-67
2023/03/25 01:21:20;;;;;;;4.13;2.37;;;7.30;99.90;7.30;99423.00;;;;4912174;28;93827;-67
2023/03/25 01:23:46;;;;;;;2.97;2.00;;;7.40;99.90;7.30;99409.00;;;;4928419;28;122331;-67
2023/03/25 01:26:12;;;;;;;1.90;1.67;;;7.40;99.90;7.30;99415.00;;;;4928442;28;96115;-67
2023/03/25 01:28:40;;;;;;;1.37;1.10;;;7.70;99.90;7.40;99414.00;;;;4929137;28;94310;-67
2023/03/25 01:31:08;;;;;;;2.30;1.33;;;7.50;99.90;7.40;99404.00;;;;4928713;28;95096;-67
2023/03/25 01:33:35;;;;;;;3.20;2.03;;;7.90;99.90;7.40;99412.00;;;;4929777;28;93993;-67
2023/03/25 01:36:01;;;;;;;2.63;1.17;;;7.70;99.90;7.40;99402.00;;;;4928590;28;92909;-67
2023/03/25 01:38:29;;;;;;;2.17;1.10;;;7.90;99.90;7.50;99405.00;;;;4926420;28;93055;-68
2023/03/25 01:40:56;;;;;;;1.60;1.13;;;7.60;99.90;7.50;99401.00;;;;4931284;28;94085;-67
2023/03/25 01:43:22;;;;;;;1.60;1.50;;;7.60;99.90;7.60;99399.00;;;;4910890;28;93172;-67
2023/03/25 01:45:49;;;;;;;2.63;0.97;;;7.70;99.90;7.60;99384.00;;;;4930350;28;93003;-67
2023/03/25 01:48:36;;;;;;;4.67;1.37;;;8.10;99.90;7.60;99387.00;;;;4931991;28;91972;-67
2023/03/25 01:51:08;;;;;;;2.47;1.47;;;7.70;99.90;7.70;99374.00;;;;4909539;28;95305;-66
2023/03/25 01:53:34;;;;;;;5.37;1.77;;;7.80;99.90;7.80;99374.00;;;;4928648;28;93139;-65
2023/03/25 01:56:04;;;;;;;1.60;1.43;;;7.90;99.90;7.80;99366.00;;;;4928280;28;97165;-65
2023/03/25 01:58:31;;;;;;;2.30;1.20;;;7.90;99.90;7.90;99364.00;;;;4907008;28;93105;-65
2023/03/25 02:00:57;;;;;;;1.93;1.43;;;8.00;99.90;7.90;99370.00;;;;4922625;28;93915;-65
2023/03/25 02:03:24;;;;;;;1.80;1.70;;;8.00;99.90;8.00;99362.00;;;;4912683;28;122544;-65
2023/03/25 02:06:02;;;;;;;1.40;1.27;;;8.00;99.90;8.00;99355.00;;;;4930306;28;92791;-65
2023/03/25 02:08:31;;;;;;;2.00;1.60;;;8.10;99.90;8.00;99348.00;;;;4911685;28;93074;-66
2023/03/25 02:10:57;;;;;;;2.37;1.47;;;8.10;99.90;8.10;99336.00;;;;4924938;28;92973;-65
2023/03/25 02:13:23;;;;;;;1.57;1.10;;;8.10;99.90;8.10;99343.00;;;;4929186;28;108400;-65
2023/03/25 02:16:15;;;;;;;4.73;1.17;;;8.20;99.90;8.10;99341.00;;;;4927511;28;111294;-66
2023/03/25 02:19:31;;;;;;;1.13;0.87;;;8.20;99.90;8.30;99339.00;;;;4928297;28;92984;-66
2023/03/25 02:22:36;;;;;;;1.53;1.13;;;8.40;99.90;8.40;99337.00;;;;4929979;28;94393;-65
2023/03/25 02:25:34;;;;;;;3.67;1.47;;;8.50;99.90;8.50;99343.00;;;;4929328;28;93736;-67
2023/03/25 02:28:24;;;;;;;7.17;1.47;;;8.30;99.90;8.70;99330.00;;;;4929072;28;92899;-65
2023/03/25 02:31:21;;;;;;;3.23;1.40;;;8.70;99.90;8.70;99330.00;;;;4907421;28;93207;-66
2023/03/25 02:34:45;;;;;;;3.73;1.40;;;8.80;99.90;8.80;99326.00;;;;4926950;28;93144;-65
2023/03/25 02:37:50;;;;;;;1.53;1.43;;;8.90;99.90;8.90;99315.00;;;;4929551;28;94268;-66
2023/03/25 02:40:21;;;;;;;0.70;0.70;;;9.00;99.90;9.00;99321.00;;;;4919083;28;93171;-66
2023/03/25 02:42:59;;;;;;;1.57;1.17;;;9.00;99.90;9.00;99318.00;;;;4932121;28;93873;-66
2023/03/25 02:45:36;;;;;;;1.33;1.00;;;9.10;99.90;8.90;99316.00;;;;4906836;28;115842;-66
2023/03/25 02:48:17;;;;;;;1.07;0.80;;;9.10;99.90;8.90;99311.00;;;;4909415;28;112551;-67
2023/03/25 02:50:52;;;;;;;2.10;1.23;;;9.00;99.90;8.90;99311.00;;;;4930762;28;93972;-66
2023/03/25 02:53:32;;;;;;;2.17;1.17;;;9.00;99.90;8.90;99294.00;;;;4908927;28;92955;-66
2023/03/25 02:56:03;;;;;;;1.77;1.40;;;9.10;99.90;9.00;99300.00;;;;4914783;28;94642;-65
2023/03/25 02:58:30;;;;;;;3.13;1.63;;;9.10;99.90;9.00;99295.00;;;;4930249;28;110132;-65
2023/03/25 03:00:59;;;;;;;2.10;1.47;;;9.00;99.90;9.00;99294.00;;;;4929369;28;109724;-67
2023/03/25 03:03:26;;;;;;;5.00;1.50;;;9.10;99.90;9.00;99299.00;;;;4928297;28;93109;-65
2023/03/25 03:05:57;;;;;;;2.67;1.37;;;9.20;99.90;9.00;99297.00;;;;4928387;28;93281;-68
2023/03/25 03:08:43;;;;;;;4.03;1.97;;;9.10;99.90;9.10;99308.00;;;;4931429;28;111290;-66
2023/03/25 03:11:41;;;;;;;2.30;1.30;;;9.20;99.90;9.10;99304.00;;;;4912570;28;93019;-66
2023/03/25 03:14:30;;;;;;;3.20;1.73;;;9.20;99.90;9.20;99311.00;;;;4929316;28;100723;-67
2023/03/25 03:17:42;;;;;;;2.13;1.53;;;9.20;99.90;9.20;99312.00;;;;4927235;28;94004;-67
2023/03/25 03:20:25;;;;;;;2.47;1.17;;;9.30;99.90;9.30;99307.00;;;;4887353;28;92854;-66
2023/03/25 03:23:19;;;;;;;2.60;1.10;;;9.40;99.90;9.30;99299.00;;;;4929497;28;102264;-66
2023/03/25 03:26:28;;;;;;;1.43;1.17;;;9.40;99.90;9.30;99306.00;;;;4914253;28;92895;-66
2023/03/25 03:29:08;;;;;;;1.60;1.50;;;9.40;99.90;9.40;99306.00;;;;4932280;28;102193;-65
2023/03/25 03:31:41;;;;;;;2.10;1.23;;;9.40;99.90;9.40;99308.00;;;;4912025;28;92951;-65
2023/03/25 03:34:19;;;;;;;1.90;1.20;;;9.40;99.90;9.50;99298.00;;;;4931777;28;93045;-67
2023/03/25 03:36:49;;;;;;;4.43;1.33;;;9.50;99.90;9.50;99311.00;;;;4931204;28;92552;-65
2023/03/25 03:39:47;;;;;;;2.60;1.50;;;9.60;99.90;9.50;99314.00;;;;4927327;28;93769;-64
2023/03/25 03:42:36;;;;;;;1.70;0.97;;;9.50;99.90;9.60;99312.00;;;;4880302;28;122430;-64
2023/03/25 03:45:21;;;;;;;2.27;1.30;;;9.60;99.90;9.60;99310.00;;;;4909077;28;95079;-64
2023/03/25 03:47:52;;;;;;;1.87;1.37;;;9.70;99.90;9.60;99313.00;;;;4911873;28;94204;-65
2023/03/25 03:50:35;;;;;;;1.27;1.03;;;9.70;99.90;9.60;99308.00;;;;4930500;28;93429;-65
2023/03/25 03:53:20;;;;;;;3.57;1.27;;;9.70;99.90;9.60;99308.00;;;;4912561;28;93711;-64
2023/03/25 03:55:52;;;;;;;1.17;1.03;;;9.70;99.90;9.60;99305.00;;;;4929634;28;93364;-64
2023/03/25 03:58:24;;;;;;;2.93;1.03;;;9.70;99.90;9.60;99308.00;;;;4906898;28;104860;-65
2023/03/25 04:01:15;;;;;;;4.07;1.63;;;9.70;99.90;9.70;99310.00;;;;4929248;28;93728;-64
2023/03/25 04:04:02;;;;;;;3.30;0.77;;;9.70;99.90;9.70;99320.00;;;;4929535;28;112201;-65
2023/03/25 04:06:55;;;;;;;1.23;1.13;;;9.70;99.90;9.70;99310.00;;;;4909915;28;93286;-65
2023/03/25 04:10:01;;;;;;;2.83;0.93;;;9.70;99.90;9.70;99319.00;;;;4911507;28;92995;-64
2023/03/25 04:12:31;;;;;;;1.07;0.80;;;9.80;99.90;9.70;99317.00;;;;4924923;28;94559;-65
2023/03/25 04:15:01;;;;;;;2.97;0.93;;;9.80;99.90;9.90;99318.00;;;;4911628;28;112709;-64
2023/03/25 04:17:31;;;;;;;0.93;0.70;;;9.90;99.90;9.90;99323.00;;;;4927951;28;93186;-66
2023/03/25 04:20:05;;;;;;;3.90;1.27;;;9.90;99.90;10.00;99321.00;;;;4928824;28;93139;-64
2023/03/25 04:22:31;;;;;;;3.13;1.23;;;10.00;99.90;10.00;99324.00;;;;4929192;28;93582;-63
2023/03/25 04:24:59;;;;;;;2.03;0.93;;;10.00;99.90;10.00;99328.00;;;;4931111;28;104603;-65
2023/03/25 04:27:28;;;;;;;1.00;0.90;;;10.00;99.90;10.10;99330.00;;;;4930974;28;93133;-66
2023/03/25 04:30:00;;;;;;;0.80;0.67;;;10.10;99.90;10.00;99325.00;;;;4932557;28;92485;-65
2023/03/25 04:32:26;;;;;;;2.10;0.83;;;10.10;99.90;10.10;99322.00;;;;4931034;28;93837;-65
2023/03/25 04:34:56;;;;;;;1.07;0.70;;;10.10;99.90;10.10;99330.00;;;;4926918;28;123640;-65
2023/03/25 04:37:26;;;;;;;0.87;0.70;;;10.10;99.90;10.10;99326.00;;;;4930702;28;93778;-67
2023/03/25 04:39:58;;;;;;;0.67;0.67;;;10.20;99.90;10.10;99331.00;;;;4907526;28;93325;-65
2023/03/25 04:42:31;;;;;;;1.43;0.97;;;10.20;99.90;10.20;99341.00;;;;4930759;28;94063;-66
2023/03/25 04:45:00;;;;;;;0.77;0.50;;;10.20;99.90;10.20;99315.00;;;;4930576;28;92910;-65
2023/03/25 04:47:26;;;;;;;1.00;0.40;;;10.20;99.90;10.20;99318.00;;;;4930906;28;92927;-66
2023/03/25 04:49:51;;;;;;;0.83;0.60;;;10.20;99.90;10.20;99336.00;;;;4914328;28;107455;-65
2023/03/25 04:52:17;;;;;;;1.03;0.60;;;10.20;99.90;10.20;99332.00;;;;4929773;28;122551;-65
2023/03/25 04:54:46;;;;;;;0.53;0.53;;;10.30;99.90;10.30;99327.00;;;;4927544;28;93589;-65
2023/03/25 04:57:12;;;;;;;0.53;0.53;;;10.30;99.90;10.30;99336.00;;;;4930835;28;93069;-65
2023/03/25 04:59:37;;;;;;;0.33;0.33;;;10.40;99.90;10.30;99341.00;;;;4931497;28;102222;-67
2023/03/25 05:02:05;;;;;;;1.50;0.80;;;10.30;99.90;10.30;99341.00;;;;4929759;28;124659;-66
2023/03/25 05:04:31;;;;;;;0.20;0.20;;;10.30;99.90;10.20;99334.00;;;;4929866;28;123593;-66
2023/03/25 05:06:57;;;;;;;0.73;0.57;;;10.60;99.90;10.20;99341.00;;;;4930340;28;92887;-65
2023/03/25 05:09:23;;;;;;;0.37;0.30;;;10.30;99.90;10.20;99332.00;;;;4931066;28;93203;-66
2023/03/25 05:11:51;;;;;;;0.73;0.40;;;10.30;99.90;10.20;99332.00;;;;4930376;28;114233;-65
2023/03/25 05:14:20;;;;;;;0.53;0.53;;;10.30;99.90;10.20;99326.00;;;;4929793;28;112838;-66
2023/03/25 05:16:47;;;;;;;0.37;0.30;;;10.20;99.90;10.20;99318.00;;;;4932543;28;94468;-65
2023/03/25 05:19:14;;;;;;;0.60;0.60;;;10.20;99.90;10.10;99321.00;;;;4931399;28;101048;-65
2023/03/25 05:21:41;;;;;;;1.70;0.87;;;10.10;99.90;10.10;99327.00;;;;4931040;28;93436;-65
2023/03/25 05:24:10;;;;;;;1.23;0.40;;;10.20;99.90;10.10;99333.00;;;;4927604;28;93880;-64
2023/03/25 05:26:38;;;;;;;0.50;0.43;;;10.20;99.90;10.10;99335.00;;;;4930202;28;96200;-65
2023/03/25 05:29:07;;;;;;;0.43;0.23;;;10.20;99.90;10.10;99335.00;;;;4920560;28;92895;-65
2023/03/25 05:31:41;;;;;;;0.70;0.60;;;10.20;99.90;10.20;99344.00;;;;4912462;28;92857;-64
2023/03/25 05:34:07;;;;;;;0.40;0.37;;;10.20;99.90;10.20;99326.00;;;;4928582;28;93389;-65
2023/03/25 05:36:33;;;;;;;2.40;0.70;;;10.30;99.90;10.30;99343.00;;;;4929319;28;92906;-64
2023/03/25 05:38:59;;;;;;;1.70;0.43;;;10.30;99.90;10.40;99349.00;;;;4928066;28;92875;-66
2023/03/25 05:41:37;;;;;;;0.57;0.23;;;10.40;99.90;10.40;99353.00;;;;4928504;28;93323;-66
2023/03/25 05:44:05;;;;;;;0.60;0.37;;;10.40;99.90;10.40;99354.00;;;;4925045;28;93882;-65
2023/03/25 05:46:30;;;;;;;0.70;0.70;;;10.50;99.90;10.40;99352.00;;;;4926444;28;95878;-65
2023/03/25 05:48:56;;;;;;;0.60;0.40;;;10.50;99.90;10.40;99348.00;;;;4925589;28;108839;-65
2023/03/25 05:51:24;;;;;;;0.40;0.40;;;10.50;99.90;10.40;99353.00;;;;4925219;28;115971;-65
2023/03/25 05:53:50;;;;;;;0.40;0.30;;;10.50;99.90;10.30;99357.00;;;;4924413;28;92885;-65
2023/03/25 05:56:21;;;;;;;0.53;0.53;;;10.40;99.90;10.30;99361.00;;;;4922807;28;110892;-65
2023/03/25 05:58:49;;;;;;;1.30;0.63;;;10.40;99.90;10.30;99357.00;;;;4925261;28;92881;-65
2023/03/25 06:01:17;;;;;;;0.60;0.40;;;10.40;99.90;10.30;99370.00;;;;4920804;28;93405;-66
2023/03/25 06:03:44;;;;;;;0.30;0.30;;;10.40;99.90;10.40;99369.00;;;;4924036;28;93908;-66
2023/03/25 06:06:17;;;;;;;0.40;0.40;;;10.40;99.90;10.40;99362.00;;;;4922599;28;110831;-65
2023/03/25 06:08:51;;;;;;;1.80;0.20;;;10.40;99.90;10.40;99357.00;;;;4927527;28;92381;-65
2023/03/25 06:11:18;;;;;;;2.50;0.40;;;10.50;99.90;10.50;99377.00;;;;4924108;28;93785;-65
2023/03/25 06:13:49;;;;;;;0.57;0.30;;;10.50;99.90;10.50;99369.00;;;;4923972;28;116699;-65
2023/03/25 06:16:20;;;;;;;2.00;0.43;;;10.50;99.90;10.50;99375.00;;;;4922955;28;93696;-66
2023/03/25 06:18:54;;;;;;;0.40;0.30;;;10.50;99.90;10.40;99377.00;;;;4928756;28;93062;-65
2023/03/25 06:21:22;;;;;;;0.20;0.20;;;10.50;99.90;10.20;99389.00;;;;4927660;28;94204;-65
2023/03/25 06:23:49;;;;;;;0.10;0.10;;;10.40;99.90;10.10;99374.00;;;;4908820;28;122927;-65
2023/03/25 06:26:16;;;;;;;0.23;0.13;;;10.30;99.90;10.00;99373.00;;;;4928368;28;109932;-65
2023/03/25 06:28:42;;;;;;;3.10;0.20;;;10.20;99.90;10.00;99379.00;;;;4929042;28;93087;-64
2023/03/25 06:31:32;;;;;;;0.93;0.43;;;10.00;99.90;9.90;99380.00;;;;4928700;28;94229;-65
2023/03/25 06:33:57;;;;;;;0.30;0.17;;;10.00;99.90;9.90;99387.00;;;;4930658;28;92820;-65
2023/03/25 06:36:24;;;;;;;1.93;0.43;;;10.00;99.90;9.90;99397.00;;;;4928684;28;112567;-65
2023/03/25 06:38:50;;;;;;;1.40;0.20;;;10.00;99.90;9.90;99395.00;;;;4929657;28;92886;-66
2023/03/25 06:41:20;;;;;;;0.20;0.20;;;9.90;99.90;9.90;99391.00;;;;4928966;28;95120;-65
2023/03/25 06:43:47;;;;;;;0.10;0.10;;;9.90;99.90;9.90;99403.00;;;;4930108;28;93967;-65
2023/03/25 06:46:13;;;;;;;0.43;0.27;;;9.90;99.90;10.00;99400.00;;;;4928880;28;92888;-65
2023/03/25 06:48:38;;;;;;;0.17;0.10;;;10.00;99.90;10.20;99393.00;;;;4928259;28;108272;-65
2023/03/25 06:51:05;;;;;;;0.33;0.33;;;10.10;99.90;10.40;99408.00;;;;4926248;28;122256;-65
2023/03/25 06:53:31;;;;;;;0.70;0.50;;;10.30;99.90;10.50;99408.00;;;;4928454;28;94653;-64
2023/03/25 06:55:57;;;;;;;0.30;0.30;;;10.50;99.90;10.60;99410.00;;;;4929590;28;93142;-66
2023/03/25 06:58:22;;;;;;;0.40;0.30;;;10.60;99.90;10.60;99409.00;;;;4928238;28;92074;-66
2023/03/25 07:00:53;;;;;;;1.00;0.30;;;10.60;99.90;10.60;99415.00;;;;4927505;28;95112;-63
2023/03/25 07:03:19;;;;;;;0.40;0.33;;;10.70;99.90;10.60;99406.00;;;;4927877;28;93689;-66
2023/03/25 07:05:47;;;;;;;0.13;0.13;;;10.70;99.90;10.60;99412.00;;;;4925420;28;106528;-66
2023/03/25 07:08:13;;;;;;;2.47;0.50;;;10.70;99.90;10.60;99413.00;;;;4927601;28;100869;-65
2023/03/25 07:10:39;;;;;;;1.27;0.73;;;10.70;99.90;10.60;99426.00;;;;4928038;28;93750;-65
2023/03/25 07:13:05;;;;;;;0.97;0.50;;;10.60;99.90;10.70;99430.00;;;;4927413;28;123337;-66
2023/03/25 07:15:30;;;;;;;1.77;0.63;;;10.70;99.90;10.80;99432.00;;;;4928665;28;110016;-64
2023/03/25 07:17:56;;;;;;;0.33;0.30;;;10.80;99.90;10.90;99432.00;;;;4926309;28;109711;-66
2023/03/25 07:20:21;;;;;;;0.20;0.20;;;10.90;99.90;11.00;99430.00;;;;4925504;28;121298;-65
2023/03/25 07:22:47;;;;;;;0.20;0.20;;;10.90;99.90;11.00;99424.00;;;;4928017;28;126072;-65
2023/03/25 07:25:13;;;;;;;0.73;0.13;;;11.00;99.90;11.00;99433.00;;;;4927521;28;103641;-64
2023/03/25 07:27:39;;;;;;;0.50;0.30;;;11.00;99.90;11.10;99432.00;;;;4926899;28;107246;-65
2023/03/25 07:30:06;;;;;;;1.10;0.30;;;11.10;99.90;11.00;99424.00;;;;4926969;28;124048;-65
2023/03/25 07:32:32;;;;;;;0.17;0.17;;;11.10;99.90;11.00;99438.00;;;;4921686;28;116457;-64
2023/03/25 07:40:09;;;;;;;0.10;0.10;;;11.20;99.90;11.40;99430.00;;;;5047391;23;94175;-65
2023/03/25 07:42:36;;;;;;;0.10;0.10;;;11.30;99.90;11.50;99426.00;;;;4973494;28;93365;-64
2023/03/25 07:45:04;;;;;;;0.20;0.17;;;11.40;99.90;11.50;99428.00;;;;4987402;28;95802;-65
2023/03/25 07:47:29;;;;;;;0.83;0.30;;;11.60;99.90;11.60;99429.00;;;;4988706;28;99639;-64
2023/03/25 07:49:55;;;;;;;0.60;0.20;;;11.60;99.90;11.70;99442.00;;;;4984127;27;93172;-65
2023/03/25 07:52:21;;;;;;;0.60;0.30;;;11.70;99.90;11.90;99434.00;;;;4990747;27;118693;-64
2023/03/25 07:54:46;;;;;;;0.10;0.10;;;11.80;99.90;12.00;99438.00;;;;4982770;27;93881;-64
2023/03/25 07:57:12;;;;;;;0.30;0.30;;;11.90;99.90;12.10;99432.00;;;;4996706;28;109971;-66
2023/03/25 07:59:38;;;;;;;1.13;0.30;;;12.10;99.90;12.10;99433.00;;;;4981139;27;122802;-64
2023/03/25 08:02:04;;;;;;;0.10;0.10;;;12.10;99.90;12.20;99432.00;;;;4993128;27;93668;-64
2023/03/25 08:04:30;;;;;;;0.83;0.20;;;12.20;99.90;12.20;99447.00;;;;4980591;28;93016;-64
2023/03/25 08:06:55;;;;;;;0.50;0.40;;;12.20;99.90;12.10;99464.00;;;;4992193;28;93092;-64
2023/03/25 08:09:21;;;;;;;0.67;0.63;;;12.20;99.90;12.10;99446.00;;;;4987262;28;123256;-63
2023/03/25 08:11:47;;;;;;;1.93;0.37;;;12.20;99.90;12.00;99454.00;;;;4988921;28;123038;-64
2023/03/25 08:14:13;;;;;;;0.40;0.40;;;12.10;99.90;12.00;99469.00;;;;4990982;28;110172;-64
2023/03/25 08:16:39;;;;;;;0.63;0.40;;;12.00;99.90;11.90;99471.00;;;;5002296;27;92918;-64
2023/03/25 08:19:05;;;;;;;0.77;0.53;;;12.00;99.90;11.90;99454.00;;;;4988251;28;97537;-65
2023/03/25 08:21:30;;;;;;;0.60;0.50;;;12.00;99.90;11.90;99463.00;;;;4990464;28;124850;-64
2023/03/25 08:24:03;;;;;;;1.27;0.50;;;11.90;99.90;11.90;99467.00;;;;4991987;28;92837;-64
2023/03/25 08:26:32;;;;;;;0.43;0.30;;;12.00;99.90;12.00;99473.00;;;;4991356;27;93288;-63
2023/03/25 08:28:58;;;;;;;0.27;0.20;;;12.00;99.90;12.10;99478.00;;;;4989233;28;94602;-64
2023/03/25 08:31:29;;;;;;;1.17;0.30;;;12.00;99.90;12.20;99471.00;;;;4992019;28;93204;-64
2023/03/25 08:33:56;;;;;;;1.67;0.50;;;12.10;99.90;12.20;99474.00;;;;4985351;28;93023;-64
2023/03/25 08:36:22;;;;;;;0.53;0.37;;;12.20;99.90;12.20;99461.00;;;;5002926;28;92321;-65
2023/03/25 08:38:49;;;;;;;0.30;0.30;;;12.20;99.90;12.30;99468.00;;;;4989060;28;93379;-64
2023/03/25 08:41:16;;;;;;;0.70;0.40;;;12.30;99.90;12.40;99457.00;;;;4991269;27;93582;-64
2023/03/25 08:43:42;;;;;;;0.43;0.20;;;12.30;99.90;12.50;99457.00;;;;4985222;28;99797;-63
2023/03/25 08:46:08;;;;;;;0.07;0.07;;;12.40;99.90;12.50;99475.00;;;;4990119;28;92916;-66
2023/03/25 08:48:34;;;;;;;0.30;0.30;;;12.50;99.90;12.60;99479.00;;;;5001000;27;95308;-66
2023/03/25 08:51:00;;;;;;;0.10;0.10;;;12.50;99.90;12.70;99469.00;;;;4992367;27;93101;-65
2023/03/25 08:53:26;;;;;;;0.43;0.43;;;12.60;99.90;12.70;99470.00;;;;4994986;28;93055;-65
2023/03/25 08:55:54;;;;;;;0.50;0.20;;;12.70;99.90;12.80;99478.00;;;;4994206;28;92813;-64
2023/03/25 08:58:21;;;;;;;0.30;0.23;;;12.70;99.90;12.80;99486.00;;;;4990491;27;95001;-64
2023/03/25 09:00:53;;;;;;;0.93;0.17;;;12.80;99.90;13.10;99488.00;;;;4991858;27;92663;-64
2023/03/25 09:03:20;;;;;;;1.63;1.47;;;12.90;99.90;13.30;99484.00;;;;4989376;27;92887;-64
2023/03/25 09:05:47;;;;;;;0.43;0.20;;;13.20;99.70;13.20;99501.00;;;;4983846;28;93056;-64
2023/03/25 09:08:13;;;;;;;0.40;0.33;;;13.20;99.90;12.80;99499.00;;;;4985261;27;98912;-64
2023/03/25 09:10:39;;;;;;;0.10;0.10;;;12.90;99.90;12.20;99499.00;;;;4982004;28;117774;-65
2023/03/25 09:13:05;;;;;;;0.70;0.33;;;12.50;99.90;11.70;99503.00;;;;4999123;27;93123;-65
2023/03/25 09:15:31;;;;;;;1.17;0.27;;;12.00;99.90;11.40;99509.00;;;;4981064;28;108853;-65
2023/03/25 09:17:57;;;;;;;0.10;0.00;;;11.70;99.90;11.10;99509.00;;;;4987945;27;92864;-64
2023/03/25 09:20:23;;;;;;;0.10;0.10;;;11.40;99.90;10.90;99502.00;;;;4982633;27;99848;-66
2023/03/25 09:22:48;;;;;;;0.20;0.20;;;11.10;99.90;10.70;99509.00;;;;4991826;27;106981;-65
2023/03/25 09:25:14;;;;;;;0.27;0.20;;;10.90;99.90;10.50;99514.00;;;;4981744;28;92381;-65
2023/03/25 09:27:40;;;;;;;0.17;0.17;;;10.70;99.90;10.30;99512.00;;;;4990962;28;93485;-65
2023/03/25 09:30:07;;;;;;;1.60;0.40;;;10.50;99.90;10.30;99513.00;;;;4985671;28;101500;-64
2023/03/25 09:32:33;;;;;;;0.93;0.20;;;10.40;99.90;10.20;99502.00;;;;5000104;28;93955;-64
2023/03/25 09:34:59;;;;;;;0.40;0.30;;;10.40;99.90;10.20;99510.00;;;;4989116;28;108308;-65
2023/03/25 09:37:25;;;;;;;0.20;0.20;;;10.30;99.90;10.20;99504.00;;;;4990190;28;92987;-65
2023/03/25 09:39:50;;;;;;;0.57;0.23;;;10.30;99.90;10.20;99518.00;;;;4968258;28;110456;-66
2023/03/25 09:42:54;;;;;;;0.30;0.30;;;10.30;99.90;10.30;99510.00;;;;4967123;28;109768;-65
2023/03/25 09:45:42;;;;;;;1.93;0.40;;;10.30;99.90;10.40;99517.00;;;;4958416;28;92959;-66
2023/03/25 09:48:38;;;;;;;4.77;2.77;;;10.40;99.90;10.80;99500.00;;;;4965325;28;92999;-65
2023/03/25 09:51:27;;;;;;;1.60;1.03;;;10.70;99.90;11.00;99506.00;;;;4976843;28;92187;-65
2023/03/25 09:54:03;;;;;;;0.43;0.43;;;10.90;99.90;11.10;99500.00;;;;4968542;28;93178;-65
2023/03/25 09:56:36;;;;;;;0.40;0.37;;;11.10;99.90;11.20;99499.00;;;;4947450;28;103907;-65
2023/03/25 09:59:20;;;;;;;0.10;0.10;;;11.20;99.90;11.30;99511.00;;;;4960427;28;94268;-66
2023/03/25 10:02:39;;;;;;;0.90;0.43;;;11.30;99.90;11.10;99505.00;;;;4938414;28;94804;-64
2023/03/25 10:05:57;;;;;;;0.27;0.27;;;11.20;99.90;11.00;99507.00;;;;4873981;28;93301;-65
2023/03/25 10:08:39;;;;;;;0.27;0.20;;;11.10;99.90;10.90;99497.00;;;;4952236;28;101559;-65
2023/03/25 10:11:11;;;;;;;0.17;0.17;;;11.00;99.90;10.90;99495.00;;;;4958946;28;94865;-64
2023/03/25 10:13:50;;;;;;;0.30;0.30;;;10.90;99.90;10.80;99497.00;;;;4962471;28;108355;-64
2023/03/25 10:16:28;;;;;;;0.77;0.30;;;10.90;99.90;10.70;99495.00;;;;4949418;28;93182;-66
2023/03/25 10:19:29;;;;;;;0.20;0.20;;;10.80;99.90;10.60;99494.00;;;;4966357;28;92127;-64
2023/03/25 10:22:08;;;;;;;0.27;0.10;;;10.70;99.90;10.60;99493.00;;;;4951196;28;92961;-63
2023/03/25 10:24:59;;;;;;;1.67;1.53;;;10.60;99.90;10.70;99486.00;;;;4947957;28;93358;-64
2023/03/25 10:27:45;;;;;;;0.13;0.13;;;10.70;99.90;11.00;99473.00;;;;4977395;28;94624;-63
2023/03/25 10:30:21;;;;;;;0.10;0.10;;;10.90;99.90;11.50;99473.00;;;;4948948;28;93284;-64
2023/03/25 10:32:56;;;;;;;0.30;0.30;;;11.20;99.90;12.00;99471.00;;;;4958800;28;93558;-64
2023/03/25 10:35:29;;;;;;;0.50;0.30;;;11.70;99.90;12.20;99469.00;;;;4956560;28;92959;-63
2023/03/25 10:38:02;;;;;;;0.10;0.10;;;12.10;99.90;12.60;99456.00;;;;4968701;28;93212;-63
2023/03/25 10:40:34;;;;;;;0.43;0.33;;;12.30;99.90;12.90;99463.00;;;;4945732;28;93009;-63
2023/03/25 10:43:25;;;;;;;0.10;0.10;;;12.60;99.90;13.20;99471.00;;;;4969555;28;94155;-65
2023/03/25 10:45:57;;;;;;;0.93;0.50;;;13.00;99.90;13.40;99459.00;;;;4955418;28;93619;-63
2023/03/25 10:48:26;;;;;;;0.20;0.17;;;13.20;99.90;13.50;99462.00;;;;4948291;28;93026;-64
2023/03/25 10:51:07;;;;;;;0.40;0.30;;;13.40;99.90;13.70;99444.00;;;;4963904;28;92784;-64
2023/03/25 10:53:33;;;;;;;0.10;0.10;;;13.60;99.10;13.80;99457.00;;;;4947631;28;94074;-64
2023/03/25 10:56:08;;;;;;;0.27;0.27;;;13.80;99.40;13.90;99452.00;;;;4951496;28;93033;-63
2023/03/25 10:58:37;;;;;;;0.07;0.07;;;13.80;97.90;14.20;99450.00;;;;4949171;28;93061;-64
2023/03/25 11:01:13;;;;;;;0.50;0.20;;;14.00;97.10;14.60;99448.00;;;;4947385;28;95895;-64
2023/03/25 11:03:41;;;;;;;0.63;0.17;;;14.40;95.90;14.90;99447.00;;;;4963205;28;92994;-64
2023/03/25 11:06:20;;;;;;;3.00;0.22;;;14.70;96.10;15.30;99441.00;;;;4979302;28;98697;-63
2023/03/25 11:09:22;;;;;;;0.17;0.17;;;15.00;94.90;15.60;99433.00;;;;4953276;28;93242;-64
2023/03/25 11:11:49;;;;;;;0.95;0.10;;;15.40;90.10;15.70;99433.00;;;;4973419;28;92509;-63
2023/03/25 11:14:21;;;;;;;0.28;0.28;;;15.60;88.20;15.80;99435.00;;;;4959327;28;94128;-64
2023/03/25 11:16:53;;;;;;;1.85;0.20;;;15.70;83.10;15.60;99429.00;;;;4965017;28;93307;-64
2023/03/25 11:19:36;;;;;;;0.57;0.20;;;15.60;84.00;15.30;99423.00;;;;4953732;28;93749;-64
2023/03/25 11:22:18;;;;;;;0.15;0.15;;;15.40;85.70;15.00;99426.00;;;;4956202;28;95756;-63
2023/03/25 11:24:49;;;;;;;0.57;0.40;;;15.10;85.50;14.70;99413.00;;;;4960094;28;93249;-64
2023/03/25 11:27:27;;;;;;;0.57;0.40;;;14.80;85.40;14.40;99407.00;;;;4953686;28;93063;-65